PWSweather.com
Personal Weather Stations
Station Observations
KTXPLANO60
Highlands Of Russell Park, Plano, TX 75025

Highlands Of Russell ParkPlano, TX 75025

Lat: 33.10431671, Lon: -96.75176239

Elevation: 761

Station Type: Davis Wireless VP2 Plus

http://www.planoweather.com

High Low Average
Temperature 73.1°F22.8°C 49.8°F9.9°C 61.3°F16.3°C
Dew Point 56.2°F13.4°C 46.1°F7.8°C 50.9°F10.5°C
Winds 15.0 mph 24.1 kmh 2.3 mph 3.7 kmh 8.0 mph SSE12.9 kmh SSE
Wind Gusts 24.2 mph38.9 kmh 1.2 mph1.9 kmh 12.0 mph19.3 kmh
Humidity 88% 52% 70%
Pressure 30.09 in1019.0 mb 29.84 in1010.5 mb -
Precipitation 0.00 in0.0 mm - -
Hour Temp Dew Point Humidity Winds Wind Gusts Pressure Precip Precip Rate Daily Precip Total
12:00 AM 52.4°F11.3°C 47.0°F8.3°C 82% 4.6 mph S7.4 kmh S 5.8 mph9.3 kmh 30.09 in1019.0 mb - 0.00 in0.0 mm 0.00 in0.0 mm
12:10 AM 52.0°F11.1°C 47.0°F8.3°C 83% 4.6 mph SSE7.4 kmh SSE 6.9 mph11.1 kmh 30.09 in1019.0 mb - 0.00 in0.0 mm 0.00 in0.0 mm
12:20 AM 51.8°F11.0°C 46.8°F8.2°C 83% 5.8 mph SSE9.3 kmh SSE 6.9 mph11.1 kmh 30.09 in1019.0 mb - 0.00 in0.0 mm 0.00 in0.0 mm
12:30 AM 51.7°F10.9°C 47.0°F8.3°C 84% 5.8 mph S9.3 kmh S 8.1 mph13.0 kmh 30.09 in1019.0 mb - 0.00 in0.0 mm 0.00 in0.0 mm
12:40 AM 51.7°F10.9°C 47.0°F8.3°C 84% 5.8 mph SSE9.3 kmh SSE 8.1 mph13.0 kmh 30.09 in1019.0 mb - 0.00 in0.0 mm 0.00 in0.0 mm
12:50 AM 51.6°F10.9°C 46.9°F8.3°C 84% 5.8 mph S9.3 kmh S 6.9 mph11.1 kmh 30.08 in1018.6 mb - 0.00 in0.0 mm 0.00 in0.0 mm
01:00 AM 51.6°F10.9°C 46.9°F8.3°C 84% 5.8 mph S9.3 kmh S 8.1 mph13.0 kmh 30.08 in1018.6 mb - 0.00 in0.0 mm 0.00 in0.0 mm
01:10 AM 51.4°F10.8°C 47.0°F8.3°C 85% 4.6 mph S7.4 kmh S 6.9 mph11.1 kmh 30.08 in1018.6 mb - 0.00 in0.0 mm 0.00 in0.0 mm
01:20 AM 51.3°F10.7°C 46.9°F8.3°C 85% 5.8 mph SSE9.3 kmh SSE 8.1 mph13.0 kmh 30.08 in1018.6 mb - 0.00 in0.0 mm 0.00 in0.0 mm
01:30 AM 51.2°F10.7°C 46.8°F8.2°C 85% 5.8 mph S9.3 kmh S 9.2 mph14.8 kmh 30.07 in1018.3 mb - 0.00 in0.0 mm 0.00 in0.0 mm
01:40 AM 51.3°F10.7°C 46.9°F8.3°C 85% 5.8 mph S9.3 kmh S 6.9 mph11.1 kmh 30.07 in1018.3 mb - 0.00 in0.0 mm 0.00 in0.0 mm
01:50 AM 51.3°F10.7°C 46.9°F8.3°C 85% 4.6 mph SSE7.4 kmh SSE 5.8 mph9.3 kmh 30.07 in1018.3 mb - 0.00 in0.0 mm 0.00 in0.0 mm
02:00 AM 51.3°F10.7°C 46.9°F8.3°C 85% 4.6 mph SSE7.4 kmh SSE 6.9 mph11.1 kmh 30.06 in1017.9 mb - 0.00 in0.0 mm 0.00 in0.0 mm
02:10 AM 51.1°F10.6°C 46.7°F8.2°C 85% 5.8 mph SSE9.3 kmh SSE 6.9 mph11.1 kmh 30.06 in1017.9 mb - 0.00 in0.0 mm 0.00 in0.0 mm
02:20 AM 50.8°F10.4°C 46.5°F8.1°C 85% 4.6 mph SSE7.4 kmh SSE 5.8 mph9.3 kmh 30.06 in1017.9 mb - 0.00 in0.0 mm 0.00 in0.0 mm
02:30 AM 50.5°F10.3°C 46.5°F8.1°C 86% 5.8 mph SSE9.3 kmh SSE 6.9 mph11.1 kmh 30.05 in1017.6 mb - 0.00 in0.0 mm 0.00 in0.0 mm
02:40 AM 50.3°F10.2°C 46.2°F7.9°C 86% 3.5 mph SSE5.6 kmh SSE 6.9 mph11.1 kmh 30.05 in1017.6 mb - 0.00 in0.0 mm 0.00 in0.0 mm
02:50 AM 50.1°F10.1°C 46.4°F8.0°C 87% 4.6 mph SSE7.4 kmh SSE 8.1 mph13.0 kmh 30.05 in1017.6 mb - 0.00 in0.0 mm 0.00 in0.0 mm
03:00 AM 49.9°F9.9°C 46.2°F7.9°C 87% 4.6 mph S7.4 kmh S 5.8 mph9.3 kmh 30.05 in1017.6 mb - 0.00 in0.0 mm 0.00 in0.0 mm
03:10 AM 49.8°F9.9°C 46.1°F7.8°C 87% 4.6 mph S7.4 kmh S 6.9 mph11.1 kmh 30.05 in1017.6 mb - 0.00 in0.0 mm 0.00 in0.0 mm
03:20 AM 49.8°F9.9°C 46.1°F7.8°C 87% 4.6 mph S7.4 kmh S 6.9 mph11.1 kmh 30.05 in1017.6 mb - 0.00 in0.0 mm 0.00 in0.0 mm
03:30 AM 50.1°F10.1°C 46.7°F8.2°C 88% 4.6 mph SSE7.4 kmh SSE 6.9 mph11.1 kmh 30.05 in1017.6 mb - 0.00 in0.0 mm 0.00 in0.0 mm
03:40 AM 50.3°F10.2°C 46.6°F8.1°C 87% 4.6 mph S7.4 kmh S 8.1 mph13.0 kmh 30.05 in1017.6 mb - 0.00 in0.0 mm 0.00 in0.0 mm
03:50 AM 50.5°F10.3°C 46.8°F8.2°C 87% 6.9 mph S11.1 kmh S 9.2 mph14.8 kmh 30.05 in1017.6 mb - 0.00 in0.0 mm 0.00 in0.0 mm
04:00 AM 51.0°F10.6°C 47.2°F8.4°C 87% 8.1 mph S13.0 kmh S 10.4 mph16.7 kmh 30.04 in1017.3 mb - 0.00 in0.0 mm 0.00 in0.0 mm
04:10 AM 51.4°F10.8°C 47.3°F8.5°C 86% 8.1 mph S13.0 kmh S 11.5 mph18.5 kmh 30.04 in1017.3 mb - 0.00 in0.0 mm 0.00 in0.0 mm
04:20 AM 51.6°F10.9°C 47.2°F8.4°C 85% 5.8 mph S9.3 kmh S 10.4 mph16.7 kmh 30.04 in1017.3 mb - 0.00 in0.0 mm 0.00 in0.0 mm
04:30 AM 51.7°F10.9°C 47.3°F8.5°C 85% 5.8 mph S9.3 kmh S 9.2 mph14.8 kmh 30.04 in1017.3 mb - 0.00 in0.0 mm 0.00 in0.0 mm
04:40 AM 51.7°F10.9°C 47.3°F8.5°C 85% 5.8 mph S9.3 kmh S 9.2 mph14.8 kmh 30.04 in1017.3 mb - 0.00 in0.0 mm 0.00 in0.0 mm
04:50 AM 51.7°F10.9°C 47.4°F8.6°C 85% 5.8 mph S9.3 kmh S 10.4 mph16.7 kmh 30.04 in1017.3 mb - 0.00 in0.0 mm 0.00 in0.0 mm
05:00 AM 51.7°F10.9°C 47.0°F8.3°C 84% 5.8 mph S9.3 kmh S 11.5 mph18.5 kmh 30.04 in1017.3 mb - 0.00 in0.0 mm 0.00 in0.0 mm
05:10 AM 51.5°F10.8°C 47.1°F8.4°C 85% 4.6 mph SSE7.4 kmh SSE 5.8 mph9.3 kmh 30.04 in1017.3 mb - 0.00 in0.0 mm 0.00 in0.0 mm
05:20 AM 51.3°F10.7°C 46.9°F8.3°C 85% 5.8 mph S9.3 kmh S 8.1 mph13.0 kmh 30.03 in1016.9 mb - 0.00 in0.0 mm 0.00 in0.0 mm
05:30 AM 51.0°F10.6°C 46.6°F8.1°C 85% 4.6 mph S7.4 kmh S 6.9 mph11.1 kmh 30.03 in1016.9 mb - 0.00 in0.0 mm 0.00 in0.0 mm
05:40 AM 50.7°F10.4°C 46.7°F8.2°C 86% 4.6 mph S7.4 kmh S 5.8 mph9.3 kmh 30.04 in1017.3 mb - 0.00 in0.0 mm 0.00 in0.0 mm
05:50 AM 50.5°F10.3°C 46.5°F8.1°C 86% 4.6 mph S7.4 kmh S 5.8 mph9.3 kmh 30.04 in1017.3 mb - 0.00 in0.0 mm 0.00 in0.0 mm
06:00 AM 50.3°F10.2°C 46.6°F8.1°C 87% 3.5 mph SSE5.6 kmh SSE 4.6 mph7.4 kmh 30.04 in1017.3 mb - 0.00 in0.0 mm 0.00 in0.0 mm
06:10 AM 50.1°F10.1°C 46.4°F8.0°C 87% 4.6 mph S7.4 kmh S 6.9 mph11.1 kmh 30.04 in1017.3 mb - 0.00 in0.0 mm 0.00 in0.0 mm
06:20 AM 50.0°F10.0°C 46.6°F8.1°C 88% 4.6 mph SSW7.4 kmh SSW 8.1 mph13.0 kmh 30.04 in1017.3 mb - 0.00 in0.0 mm 0.00 in0.0 mm
06:30 AM 50.2°F10.1°C 46.8°F8.2°C 88% 4.6 mph S7.4 kmh S 5.8 mph9.3 kmh 30.04 in1017.3 mb - 0.00 in0.0 mm 0.00 in0.0 mm
06:40 AM 50.4°F10.2°C 47.0°F8.3°C 88% 4.6 mph S7.4 kmh S 5.8 mph9.3 kmh 30.04 in1017.3 mb - 0.00 in0.0 mm 0.00 in0.0 mm
06:50 AM 50.4°F10.2°C 47.0°F8.3°C 88% 3.5 mph S5.6 kmh S 6.9 mph11.1 kmh 30.05 in1017.6 mb - 0.00 in0.0 mm 0.00 in0.0 mm
07:00 AM 50.5°F10.3°C 47.1°F8.4°C 88% 2.3 mph S3.7 kmh S 4.6 mph7.4 kmh 30.05 in1017.6 mb - 0.00 in0.0 mm 0.00 in0.0 mm
07:10 AM 50.5°F10.3°C 47.1°F8.4°C 88% 3.5 mph S5.6 kmh S 6.9 mph11.1 kmh 30.05 in1017.6 mb - 0.00 in0.0 mm 0.00 in0.0 mm
07:20 AM 50.6°F10.3°C 47.2°F8.4°C 88% 4.6 mph SSE7.4 kmh SSE 5.8 mph9.3 kmh 30.05 in1017.6 mb - 0.00 in0.0 mm 0.00 in0.0 mm
07:30 AM 50.9°F10.5°C 47.5°F8.6°C 88% 3.5 mph S5.6 kmh S 6.9 mph11.1 kmh 30.05 in1017.6 mb - 0.00 in0.0 mm 0.00 in0.0 mm
07:40 AM 52.1°F11.2°C 48.7°F9.3°C 88% 2.3 mph SSE3.7 kmh SSE 2.3 mph3.7 kmh 30.06 in1017.9 mb - 0.00 in0.0 mm 0.00 in0.0 mm
07:50 AM 53.2°F11.8°C 49.1°F9.5°C 86% 2.3 mph S3.7 kmh S 5.8 mph9.3 kmh 30.06 in1017.9 mb - 0.00 in0.0 mm 0.00 in0.0 mm
08:00 AM 54.1°F12.3°C 49.7°F9.8°C 85% 2.3 mph S3.7 kmh S 1.2 mph1.9 kmh 30.06 in1017.9 mb - 0.00 in0.0 mm 0.00 in0.0 mm
08:10 AM 55.1°F12.8°C 50.0°F10.0°C 83% 8.1 mph S13.0 kmh S 10.4 mph16.7 kmh 30.06 in1017.9 mb - 0.00 in0.0 mm 0.00 in0.0 mm
08:20 AM 55.9°F13.3°C 50.5°F10.3°C 82% 6.9 mph S11.1 kmh S 10.4 mph16.7 kmh 30.06 in1017.9 mb - 0.00 in0.0 mm 0.00 in0.0 mm
08:30 AM 56.4°F13.6°C 50.7°F10.4°C 81% 4.6 mph S7.4 kmh S 5.8 mph9.3 kmh 30.06 in1017.9 mb - 0.00 in0.0 mm 0.00 in0.0 mm
08:40 AM 57.2°F14.0°C 51.1°F10.6°C 80% 9.2 mph S14.8 kmh S 12.7 mph20.4 kmh 30.05 in1017.6 mb - 0.00 in0.0 mm 0.00 in0.0 mm
08:50 AM 57.8°F14.3°C 51.3°F10.7°C 79% 5.8 mph S9.3 kmh S 6.9 mph11.1 kmh 30.06 in1017.9 mb - 0.00 in0.0 mm 0.00 in0.0 mm
09:00 AM 58.8°F14.9°C 51.6°F10.9°C 77% 4.6 mph S7.4 kmh S 5.8 mph9.3 kmh 30.05 in1017.6 mb - 0.00 in0.0 mm 0.00 in0.0 mm
09:10 AM 59.4°F15.2°C 51.8°F11.0°C 76% 6.9 mph S11.1 kmh S 11.5 mph18.5 kmh 30.05 in1017.6 mb - 0.00 in0.0 mm 0.00 in0.0 mm
09:20 AM 60.3°F15.7°C 52.3°F11.3°C 75% 5.8 mph S9.3 kmh S 8.1 mph13.0 kmh 30.05 in1017.6 mb - 0.00 in0.0 mm 0.00 in0.0 mm
09:30 AM 61.2°F16.2°C 52.5°F11.4°C 73% 8.1 mph S13.0 kmh S 11.5 mph18.5 kmh 30.05 in1017.6 mb - 0.00 in0.0 mm 0.00 in0.0 mm
09:40 AM 61.7°F16.5°C 53.0°F11.7°C 73% 6.9 mph S11.1 kmh S 11.5 mph18.5 kmh 30.05 in1017.6 mb - 0.00 in0.0 mm 0.00 in0.0 mm
09:50 AM 63.0°F17.2°C 53.5°F11.9°C 71% 6.9 mph S11.1 kmh S 11.5 mph18.5 kmh 30.04 in1017.3 mb - 0.00 in0.0 mm 0.00 in0.0 mm
10:00 AM 63.8°F17.7°C 53.0°F11.7°C 68% 9.2 mph S14.8 kmh S 10.4 mph16.7 kmh 30.04 in1017.3 mb - 0.00 in0.0 mm 0.00 in0.0 mm
10:10 AM 64.7°F18.2°C 53.5°F11.9°C 67% 9.2 mph S14.8 kmh S 11.5 mph18.5 kmh 30.04 in1017.3 mb - 0.00 in0.0 mm 0.00 in0.0 mm
10:20 AM 64.9°F18.3°C 53.7°F12.1°C 67% 5.8 mph SSW9.3 kmh SSW 8.1 mph13.0 kmh 30.03 in1016.9 mb - 0.00 in0.0 mm 0.00 in0.0 mm
10:30 AM 66.0°F18.9°C 54.3°F12.4°C 66% 4.6 mph S7.4 kmh S 5.8 mph9.3 kmh 30.03 in1016.9 mb - 0.00 in0.0 mm 0.00 in0.0 mm
10:40 AM 66.3°F19.1°C 54.6°F12.6°C 66% 5.8 mph S9.3 kmh S 10.4 mph16.7 kmh 30.03 in1016.9 mb - 0.00 in0.0 mm 0.00 in0.0 mm
10:50 AM 66.9°F19.4°C 54.8°F12.7°C 65% 6.9 mph S11.1 kmh S 11.5 mph18.5 kmh 30.02 in1016.6 mb - 0.00 in0.0 mm 0.00 in0.0 mm
11:00 AM 68.1°F20.1°C 55.5°F13.1°C 64% 5.8 mph S9.3 kmh S 5.8 mph9.3 kmh 30.02 in1016.6 mb - 0.00 in0.0 mm 0.00 in0.0 mm
11:10 AM 68.8°F20.4°C 55.2°F12.9°C 62% 8.1 mph SSE13.0 kmh SSE 10.4 mph16.7 kmh 30.02 in1016.6 mb - 0.00 in0.0 mm 0.00 in0.0 mm
11:20 AM 68.4°F20.2°C 54.9°F12.7°C 62% 8.1 mph SE13.0 kmh SE 13.8 mph22.2 kmh 30.01 in1016.3 mb - 0.00 in0.0 mm 0.00 in0.0 mm
11:30 AM 68.9°F20.5°C 55.3°F12.9°C 62% 9.2 mph S14.8 kmh S 11.5 mph18.5 kmh 30.01 in1016.3 mb - 0.00 in0.0 mm 0.00 in0.0 mm
11:40 AM 69.0°F20.6°C 55.4°F13.0°C 62% 5.8 mph S9.3 kmh S 13.8 mph22.2 kmh 30.00 in1015.9 mb - 0.00 in0.0 mm 0.00 in0.0 mm
11:50 AM 69.2°F20.7°C 55.2°F12.9°C 61% 6.9 mph SE11.1 kmh SE 8.1 mph13.0 kmh 30.00 in1015.9 mb - 0.00 in0.0 mm 0.00 in0.0 mm
12:00 PM 69.0°F20.6°C 55.4°F13.0°C 62% 6.9 mph SSE11.1 kmh SSE 11.5 mph18.5 kmh 29.99 in1015.6 mb - 0.00 in0.0 mm 0.00 in0.0 mm
12:10 PM 70.2°F21.2°C 55.7°F13.2°C 60% 11.5 mph SSE18.5 kmh SSE 16.1 mph25.9 kmh 29.98 in1015.2 mb - 0.00 in0.0 mm 0.00 in0.0 mm
12:20 PM 70.3°F21.3°C 55.8°F13.2°C 60% 8.1 mph SSE13.0 kmh SSE 8.1 mph13.0 kmh 29.98 in1015.2 mb - 0.00 in0.0 mm 0.00 in0.0 mm
12:30 PM 71.4°F21.9°C 55.8°F13.2°C 58% 6.9 mph SE11.1 kmh SE 15.0 mph24.1 kmh 29.97 in1014.9 mb - 0.00 in0.0 mm 0.00 in0.0 mm
12:40 PM 71.4°F21.9°C 55.9°F13.3°C 58% 11.5 mph SSE18.5 kmh SSE 15.0 mph24.1 kmh 29.96 in1014.6 mb - 0.00 in0.0 mm 0.00 in0.0 mm
12:50 PM 71.5°F21.9°C 56.0°F13.3°C 58% 10.4 mph S16.7 kmh S 19.6 mph31.5 kmh 29.95 in1014.2 mb - 0.00 in0.0 mm 0.00 in0.0 mm
01:00 PM 72.3°F22.4°C 56.2°F13.4°C 57% 10.4 mph SSE16.7 kmh SSE 16.1 mph25.9 kmh 29.94 in1013.9 mb - 0.00 in0.0 mm 0.00 in0.0 mm
01:10 PM 72.2°F22.3°C 55.6°F13.1°C 56% 11.5 mph SE18.5 kmh SE 16.1 mph25.9 kmh 29.94 in1013.9 mb - 0.00 in0.0 mm 0.00 in0.0 mm
01:20 PM 72.1°F22.3°C 55.5°F13.1°C 56% 11.5 mph SE18.5 kmh SE 18.4 mph29.6 kmh 29.93 in1013.5 mb - 0.00 in0.0 mm 0.00 in0.0 mm
01:30 PM 72.4°F22.4°C 55.8°F13.2°C 56% 12.7 mph S20.4 kmh S 19.6 mph31.5 kmh 29.93 in1013.5 mb - 0.00 in0.0 mm 0.00 in0.0 mm
01:40 PM 72.9°F22.7°C 55.8°F13.2°C 55% 8.1 mph SE13.0 kmh SE 15.0 mph24.1 kmh 29.92 in1013.2 mb - 0.00 in0.0 mm 0.00 in0.0 mm
01:50 PM 72.7°F22.6°C 55.6°F13.1°C 55% 8.1 mph SSE13.0 kmh SSE 19.6 mph31.5 kmh 29.92 in1013.2 mb - 0.00 in0.0 mm 0.00 in0.0 mm
02:00 PM 72.8°F22.7°C 55.1°F12.8°C 54% 10.4 mph SSE16.7 kmh SSE 15.0 mph24.1 kmh 29.91 in1012.9 mb - 0.00 in0.0 mm 0.00 in0.0 mm
02:10 PM 72.8°F22.7°C 54.7°F12.6°C 53% 6.9 mph SE11.1 kmh SE 15.0 mph24.1 kmh 29.91 in1012.9 mb - 0.00 in0.0 mm 0.00 in0.0 mm
02:20 PM 73.1°F22.8°C 54.5°F12.5°C 52% 12.7 mph SSE20.4 kmh SSE 17.3 mph27.8 kmh 29.91 in1012.9 mb - 0.00 in0.0 mm 0.00 in0.0 mm
02:30 PM 73.1°F22.8°C 55.0°F12.8°C 53% 9.2 mph S14.8 kmh S 19.6 mph31.5 kmh 29.91 in1012.9 mb - 0.00 in0.0 mm 0.00 in0.0 mm
02:40 PM 73.1°F22.8°C 54.4°F12.4°C 52% 12.7 mph SSE20.4 kmh SSE 19.6 mph31.5 kmh 29.90 in1012.5 mb - 0.00 in0.0 mm 0.00 in0.0 mm
02:50 PM 73.0°F22.8°C 54.3°F12.4°C 52% 11.5 mph SSE18.5 kmh SSE 18.4 mph29.6 kmh 29.90 in1012.5 mb - 0.00 in0.0 mm 0.00 in0.0 mm
03:00 PM 72.0°F22.2°C 54.4°F12.4°C 54% 12.7 mph SSE20.4 kmh SSE 19.6 mph31.5 kmh 29.89 in1012.2 mb - 0.00 in0.0 mm 0.00 in0.0 mm
03:10 PM 71.5°F21.9°C 54.0°F12.2°C 54% 8.1 mph S13.0 kmh S 11.5 mph18.5 kmh 29.89 in1012.2 mb - 0.00 in0.0 mm 0.00 in0.0 mm
03:20 PM 71.1°F21.7°C 54.2°F12.3°C 55% 9.2 mph S14.8 kmh S 16.1 mph25.9 kmh 29.89 in1012.2 mb - 0.00 in0.0 mm 0.00 in0.0 mm
03:30 PM 70.8°F21.6°C 53.8°F12.1°C 55% 8.1 mph SSE13.0 kmh SSE 13.8 mph22.2 kmh 29.89 in1012.2 mb - 0.00 in0.0 mm 0.00 in0.0 mm
03:40 PM 71.3°F21.8°C 53.8°F12.1°C 54% 11.5 mph SSE18.5 kmh SSE 13.8 mph22.2 kmh 29.89 in1012.2 mb - 0.00 in0.0 mm 0.00 in0.0 mm
03:50 PM 71.8°F22.1°C 53.7°F12.1°C 53% 15.0 mph SSE24.1 kmh SSE 20.7 mph33.3 kmh 29.89 in1012.2 mb - 0.00 in0.0 mm 0.00 in0.0 mm
04:00 PM 71.7°F22.1°C 53.7°F12.1°C 53% 12.7 mph S20.4 kmh S 18.4 mph29.6 kmh 29.88 in1011.9 mb - 0.00 in0.0 mm 0.00 in0.0 mm
04:10 PM 71.3°F21.8°C 53.3°F11.8°C 53% 11.5 mph SSE18.5 kmh SSE 18.4 mph29.6 kmh 29.88 in1011.9 mb - 0.00 in0.0 mm 0.00 in0.0 mm
04:20 PM 70.7°F21.5°C 53.3°F11.8°C 54% 10.4 mph SSE16.7 kmh SSE 19.6 mph31.5 kmh 29.88 in1011.9 mb - 0.00 in0.0 mm 0.00 in0.0 mm
04:30 PM 70.3°F21.3°C 52.9°F11.6°C 54% 10.4 mph SSE16.7 kmh SSE 17.3 mph27.8 kmh 29.88 in1011.9 mb - 0.00 in0.0 mm 0.00 in0.0 mm
04:40 PM 70.0°F21.1°C 53.1°F11.7°C 55% 12.7 mph SSE20.4 kmh SSE 24.2 mph38.9 kmh 29.88 in1011.9 mb - 0.00 in0.0 mm 0.00 in0.0 mm
04:50 PM 69.7°F20.9°C 52.8°F11.6°C 55% 9.2 mph SSE14.8 kmh SSE 12.7 mph20.4 kmh 29.88 in1011.9 mb - 0.00 in0.0 mm 0.00 in0.0 mm
05:00 PM 69.2°F20.7°C 52.3°F11.3°C 55% 10.4 mph SSE16.7 kmh SSE 18.4 mph29.6 kmh 29.88 in1011.9 mb - 0.00 in0.0 mm 0.00 in0.0 mm
05:10 PM 68.8°F20.4°C 52.0°F11.1°C 55% 10.4 mph SSE16.7 kmh SSE 12.7 mph20.4 kmh 29.88 in1011.9 mb - 0.00 in0.0 mm 0.00 in0.0 mm
05:20 PM 68.3°F20.2°C 52.0°F11.1°C 56% 11.5 mph SE18.5 kmh SE 13.8 mph22.2 kmh 29.88 in1011.9 mb - 0.00 in0.0 mm 0.00 in0.0 mm
05:30 PM 67.9°F19.9°C 51.6°F10.9°C 56% 10.4 mph SSE16.7 kmh SSE 12.7 mph20.4 kmh 29.88 in1011.9 mb - 0.00 in0.0 mm 0.00 in0.0 mm
05:40 PM 67.7°F19.8°C 51.4°F10.8°C 56% 8.1 mph SSE13.0 kmh SSE 13.8 mph22.2 kmh 29.88 in1011.9 mb - 0.00 in0.0 mm 0.00 in0.0 mm
05:50 PM 67.3°F19.6°C 51.1°F10.6°C 56% 9.2 mph SSE14.8 kmh SSE 12.7 mph20.4 kmh 29.88 in1011.9 mb - 0.00 in0.0 mm 0.00 in0.0 mm
06:00 PM 67.2°F19.6°C 50.9°F10.5°C 56% 9.2 mph SSE14.8 kmh SSE 16.1 mph25.9 kmh 29.87 in1011.5 mb - 0.00 in0.0 mm 0.00 in0.0 mm
06:10 PM 67.0°F19.4°C 51.3°F10.7°C 57% 10.4 mph SSE16.7 kmh SSE 15.0 mph24.1 kmh 29.88 in1011.9 mb - 0.00 in0.0 mm 0.00 in0.0 mm
06:20 PM 66.8°F19.3°C 51.1°F10.6°C 57% 9.2 mph SSE14.8 kmh SSE 13.8 mph22.2 kmh 29.88 in1011.9 mb - 0.00 in0.0 mm 0.00 in0.0 mm
06:30 PM 66.6°F19.2°C 50.9°F10.5°C 57% 6.9 mph SE11.1 kmh SE 10.4 mph16.7 kmh 29.88 in1011.9 mb - 0.00 in0.0 mm 0.00 in0.0 mm
06:40 PM 66.4°F19.1°C 51.2°F10.7°C 58% 8.1 mph SSE13.0 kmh SSE 11.5 mph18.5 kmh 29.88 in1011.9 mb - 0.00 in0.0 mm 0.00 in0.0 mm
06:50 PM 66.2°F19.0°C 51.0°F10.6°C 58% 11.5 mph SSE18.5 kmh SSE 15.0 mph24.1 kmh 29.87 in1011.5 mb - 0.00 in0.0 mm 0.00 in0.0 mm
07:00 PM 66.0°F18.9°C 50.8°F10.4°C 58% 6.9 mph SE11.1 kmh SE 11.5 mph18.5 kmh 29.87 in1011.5 mb - 0.00 in0.0 mm 0.00 in0.0 mm
07:10 PM 65.9°F18.8°C 50.2°F10.1°C 57% 11.5 mph SSE18.5 kmh SSE 16.1 mph25.9 kmh 29.87 in1011.5 mb - 0.00 in0.0 mm 0.00 in0.0 mm
07:20 PM 65.8°F18.8°C 50.1°F10.1°C 57% 9.2 mph SSE14.8 kmh SSE 15.0 mph24.1 kmh 29.87 in1011.5 mb - 0.00 in0.0 mm 0.00 in0.0 mm
07:30 PM 65.7°F18.7°C 50.0°F10.0°C 57% 10.4 mph SE16.7 kmh SE 17.3 mph27.8 kmh 29.87 in1011.5 mb - 0.00 in0.0 mm 0.00 in0.0 mm
07:40 PM 65.4°F18.6°C 49.8°F9.9°C 57% 6.9 mph SSE11.1 kmh SSE 12.7 mph20.4 kmh 29.87 in1011.5 mb - 0.00 in0.0 mm 0.00 in0.0 mm
07:50 PM 65.3°F18.5°C 50.1°F10.1°C 58% 10.4 mph SSE16.7 kmh SSE 16.1 mph25.9 kmh 29.87 in1011.5 mb - 0.00 in0.0 mm 0.00 in0.0 mm
08:00 PM 65.1°F18.4°C 50.0°F10.0°C 58% 9.2 mph SSE14.8 kmh SSE 11.5 mph18.5 kmh 29.87 in1011.5 mb - 0.00 in0.0 mm 0.00 in0.0 mm
08:10 PM 64.9°F18.3°C 49.8°F9.9°C 58% 11.5 mph SE18.5 kmh SE 15.0 mph24.1 kmh 29.87 in1011.5 mb - 0.00 in0.0 mm 0.00 in0.0 mm
08:20 PM 64.8°F18.2°C 49.7°F9.8°C 58% 11.5 mph SE18.5 kmh SE 16.1 mph25.9 kmh 29.87 in1011.5 mb - 0.00 in0.0 mm 0.00 in0.0 mm
08:30 PM 64.6°F18.1°C 50.0°F10.0°C 59% 11.5 mph SSE18.5 kmh SSE 16.1 mph25.9 kmh 29.87 in1011.5 mb - 0.00 in0.0 mm 0.00 in0.0 mm
08:40 PM 64.4°F18.0°C 49.8°F9.9°C 59% 10.4 mph SSE16.7 kmh SSE 13.8 mph22.2 kmh 29.87 in1011.5 mb - 0.00 in0.0 mm 0.00 in0.0 mm
08:50 PM 64.2°F17.9°C 50.0°F10.0°C 60% 11.5 mph SSE18.5 kmh SSE 15.0 mph24.1 kmh 29.87 in1011.5 mb - 0.00 in0.0 mm 0.00 in0.0 mm
09:00 PM 64.0°F17.8°C 50.3°F10.2°C 61% 9.2 mph SSE14.8 kmh SSE 13.8 mph22.2 kmh 29.87 in1011.5 mb - 0.00 in0.0 mm 0.00 in0.0 mm
09:10 PM 63.8°F17.7°C 50.5°F10.3°C 62% 10.4 mph S16.7 kmh S 17.3 mph27.8 kmh 29.86 in1011.2 mb - 0.00 in0.0 mm 0.00 in0.0 mm
09:20 PM 63.7°F17.6°C 50.8°F10.4°C 63% 11.5 mph SSE18.5 kmh SSE 16.1 mph25.9 kmh 29.86 in1011.2 mb - 0.00 in0.0 mm 0.00 in0.0 mm
09:30 PM 63.6°F17.6°C 51.2°F10.7°C 64% 9.2 mph SSE14.8 kmh SSE 15.0 mph24.1 kmh 29.86 in1011.2 mb - 0.00 in0.0 mm 0.00 in0.0 mm
09:40 PM 63.4°F17.4°C 51.4°F10.8°C 65% 12.7 mph SE20.4 kmh SE 18.4 mph29.6 kmh 29.86 in1011.2 mb - 0.00 in0.0 mm 0.00 in0.0 mm
09:50 PM 63.3°F17.4°C 51.3°F10.7°C 65% 9.2 mph S14.8 kmh S 17.3 mph27.8 kmh 29.86 in1011.2 mb - 0.00 in0.0 mm 0.00 in0.0 mm
10:00 PM 63.1°F17.3°C 51.6°F10.9°C 66% 9.2 mph S14.8 kmh S 15.0 mph24.1 kmh 29.86 in1011.2 mb - 0.00 in0.0 mm 0.00 in0.0 mm
10:10 PM 63.0°F17.2°C 51.9°F11.1°C 67% 9.2 mph S14.8 kmh S 12.7 mph20.4 kmh 29.86 in1011.2 mb - 0.00 in0.0 mm 0.00 in0.0 mm
10:20 PM 63.0°F17.2°C 52.2°F11.2°C 68% 8.1 mph SSE13.0 kmh SSE 10.4 mph16.7 kmh 29.86 in1011.2 mb - 0.00 in0.0 mm 0.00 in0.0 mm
10:30 PM 63.0°F17.2°C 52.7°F11.5°C 69% 9.2 mph S14.8 kmh S 18.4 mph29.6 kmh 29.86 in1011.2 mb - 0.00 in0.0 mm 0.00 in0.0 mm
10:40 PM 63.1°F17.3°C 53.2°F11.8°C 70% 11.5 mph SSE18.5 kmh SSE 19.6 mph31.5 kmh 29.85 in1010.8 mb - 0.00 in0.0 mm 0.00 in0.0 mm
10:50 PM 63.2°F17.3°C 53.3°F11.8°C 70% 11.5 mph SSE18.5 kmh SSE 13.8 mph22.2 kmh 29.85 in1010.8 mb - 0.00 in0.0 mm 0.00 in0.0 mm
11:00 PM 63.2°F17.3°C 53.6°F12.0°C 71% 9.2 mph SSE14.8 kmh SSE 13.8 mph22.2 kmh 29.85 in1010.8 mb - 0.00 in0.0 mm 0.00 in0.0 mm
11:10 PM 63.1°F17.3°C 53.9°F12.2°C 72% 9.2 mph SSE14.8 kmh SSE 19.6 mph31.5 kmh 29.85 in1010.8 mb - 0.00 in0.0 mm 0.00 in0.0 mm
11:20 PM 62.9°F17.2°C 54.1°F12.3°C 73% 11.5 mph SSE18.5 kmh SSE 12.7 mph20.4 kmh 29.84 in1010.5 mb - 0.00 in0.0 mm 0.00 in0.0 mm
11:30 PM 62.9°F17.2°C 54.5°F12.5°C 74% 10.4 mph SSE16.7 kmh SSE 10.4 mph16.7 kmh 29.84 in1010.5 mb - 0.00 in0.0 mm 0.00 in0.0 mm
11:40 PM 62.7°F17.1°C 54.7°F12.6°C 75% 9.2 mph SSE14.8 kmh SSE 11.5 mph18.5 kmh 29.84 in1010.5 mb - 0.00 in0.0 mm 0.00 in0.0 mm
11:50 PM 62.5°F16.9°C 54.5°F12.5°C 75% 11.5 mph SSE18.5 kmh SSE 15.0 mph24.1 kmh 29.84 in1010.5 mb - 0.00 in0.0 mm 0.00 in0.0 mm